sensor_id;sensor_type;location;lat;lon;timestamp;temperature;humidity
37518;DHT22;23366;52.498;13.446;2022-08-18T00:02:17;25.40;82.20
37518;DHT22;23366;52.498;13.446;2022-08-18T00:04:43;25.40;82.20
37518;DHT22;23366;52.498;13.446;2022-08-18T00:07:12;25.30;82.10
37518;DHT22;23366;52.498;13.446;2022-08-18T00:09:39;25.40;82.40
37518;DHT22;23366;52.498;13.446;2022-08-18T00:12:13;25.30;82.30
37518;DHT22;23366;52.498;13.446;2022-08-18T00:14:39;25.30;82.50
37518;DHT22;23366;52.498;13.446;2022-08-18T00:17:04;25.30;82.50
37518;DHT22;23366;52.498;13.446;2022-08-18T00:19:30;25.30;82.70
37518;DHT22;23366;52.498;13.446;2022-08-18T00:21:55;25.30;82.90
37518;DHT22;23366;52.498;13.446;2022-08-18T00:24:22;25.30;83.00
37518;DHT22;23366;52.498;13.446;2022-08-18T00:26:47;25.20;82.80
37518;DHT22;23366;52.498;13.446;2022-08-18T00:29:13;25.20;83.00
37518;DHT22;23366;52.498;13.446;2022-08-18T00:31:38;25.20;83.10
37518;DHT22;23366;52.498;13.446;2022-08-18T00:34:04;25.10;83.30
37518;DHT22;23366;52.498;13.446;2022-08-18T00:36:31;25.10;83.60
37518;DHT22;23366;52.498;13.446;2022-08-18T00:38:59;25.10;83.50
37518;DHT22;23366;52.498;13.446;2022-08-18T00:41:25;25.10;83.70
37518;DHT22;23366;52.498;13.446;2022-08-18T00:43:51;25.10;84.10
37518;DHT22;23366;52.498;13.446;2022-08-18T00:46:21;25.00;84.10
37518;DHT22;23366;52.498;13.446;2022-08-18T00:48:48;25.00;84.20
37518;DHT22;23366;52.498;13.446;2022-08-18T00:51:37;25.00;84.20
37518;DHT22;23366;52.498;13.446;2022-08-18T00:54:15;24.90;84.50
37518;DHT22;23366;52.498;13.446;2022-08-18T00:56:47;24.90;84.70
37518;DHT22;23366;52.498;13.446;2022-08-18T00:59:27;24.90;84.90
37518;DHT22;23366;52.498;13.446;2022-08-18T01:01:57;24.90;85.10
37518;DHT22;23366;52.498;13.446;2022-08-18T01:04:48;24.90;85.40
37518;DHT22;23366;52.498;13.446;2022-08-18T01:07:23;24.80;85.40
37518;DHT22;23366;52.498;13.446;2022-08-18T01:09:51;24.80;86.00
37518;DHT22;23366;52.498;13.446;2022-08-18T01:12:18;24.80;86.70
37518;DHT22;23366;52.498;13.446;2022-08-18T01:14:45;24.70;86.70
37518;DHT22;23366;52.498;13.446;2022-08-18T01:17:12;24.70;87.40
37518;DHT22;23366;52.498;13.446;2022-08-18T01:19:57;24.70;87.60
37518;DHT22;23366;52.498;13.446;2022-08-18T01:25:18;24.60;87.80
37518;DHT22;23366;52.498;13.446;2022-08-18T01:28:04;24.60;88.30
37518;DHT22;23366;52.498;13.446;2022-08-18T01:30:31;24.50;88.50
37518;DHT22;23366;52.498;13.446;2022-08-18T01:33:08;24.50;88.80
37518;DHT22;23366;52.498;13.446;2022-08-18T01:35:34;24.50;89.20
37518;DHT22;23366;52.498;13.446;2022-08-18T01:38:00;24.50;89.40
37518;DHT22;23366;52.498;13.446;2022-08-18T01:40:25;24.40;89.30
37518;DHT22;23366;52.498;13.446;2022-08-18T01:42:51;24.40;89.80
37518;DHT22;23366;52.498;13.446;2022-08-18T01:45:17;24.40;90.00
37518;DHT22;23366;52.498;13.446;2022-08-18T01:47:44;24.40;90.10
37518;DHT22;23366;52.498;13.446;2022-08-18T01:50:10;24.30;90.20
37518;DHT22;23366;52.498;13.446;2022-08-18T01:52:38;24.30;90.20
37518;DHT22;23366;52.498;13.446;2022-08-18T01:55:04;24.30;90.30
37518;DHT22;23366;52.498;13.446;2022-08-18T01:57:32;24.30;90.30
37518;DHT22;23366;52.498;13.446;2022-08-18T01:59:58;24.30;90.30
37518;DHT22;23366;52.498;13.446;2022-08-18T02:02:29;24.30;90.30
37518;DHT22;23366;52.498;13.446;2022-08-18T02:05:08;24.30;90.30
37518;DHT22;23366;52.498;13.446;2022-08-18T02:07:35;24.30;90.20
37518;DHT22;23366;52.498;13.446;2022-08-18T02:10:04;24.20;90.20
37518;DHT22;23366;52.498;13.446;2022-08-18T02:12:31;24.20;90.40
37518;DHT22;23366;52.498;13.446;2022-08-18T02:14:57;24.20;90.40
37518;DHT22;23366;52.498;13.446;2022-08-18T02:17:22;24.20;90.90
37518;DHT22;23366;52.498;13.446;2022-08-18T02:19:48;24.10;90.90
37518;DHT22;23366;52.498;13.446;2022-08-18T02:22:17;24.10;91.10
37518;DHT22;23366;52.498;13.446;2022-08-18T02:24:43;24.00;91.40
37518;DHT22;23366;52.498;13.446;2022-08-18T02:27:10;24.00;91.60
37518;DHT22;23366;52.498;13.446;2022-08-18T02:29:36;24.00;91.70
37518;DHT22;23366;52.498;13.446;2022-08-18T02:32:02;24.00;92.00
37518;DHT22;23366;52.498;13.446;2022-08-18T02:34:28;24.00;92.20
37518;DHT22;23366;52.498;13.446;2022-08-18T02:36:53;23.90;92.20
37518;DHT22;23366;52.498;13.446;2022-08-18T02:39:19;24.00;92.50
37518;DHT22;23366;52.498;13.446;2022-08-18T02:41:45;24.00;92.60
37518;DHT22;23366;52.498;13.446;2022-08-18T02:44:11;24.00;92.80
37518;DHT22;23366;52.498;13.446;2022-08-18T02:46:37;24.00;92.90
37518;DHT22;23366;52.498;13.446;2022-08-18T02:49:04;24.00;92.90
37518;DHT22;23366;52.498;13.446;2022-08-18T02:51:30;24.00;92.90
37518;DHT22;23366;52.498;13.446;2022-08-18T02:53:56;23.90;93.00
37518;DHT22;23366;52.498;13.446;2022-08-18T02:56:27;23.90;92.90
37518;DHT22;23366;52.498;13.446;2022-08-18T02:59:04;23.90;93.20
37518;DHT22;23366;52.498;13.446;2022-08-18T03:01:37;23.80;93.20
37518;DHT22;23366;52.498;13.446;2022-08-18T03:04:05;23.80;93.40
37518;DHT22;23366;52.498;13.446;2022-08-18T03:06:32;23.80;93.70
37518;DHT22;23366;52.498;13.446;2022-08-18T03:08:58;23.70;93.90
37518;DHT22;23366;52.498;13.446;2022-08-18T03:11:26;23.70;94.20
37518;DHT22;23366;52.498;13.446;2022-08-18T03:13:52;23.70;94.40
37518;DHT22;23366;52.498;13.446;2022-08-18T03:16:19;23.70;94.80
37518;DHT22;23366;52.498;13.446;2022-08-18T03:18:46;23.70;95.00
37518;DHT22;23366;52.498;13.446;2022-08-18T03:21:15;23.60;95.20
37518;DHT22;23366;52.498;13.446;2022-08-18T03:23:40;23.60;95.50
37518;DHT22;23366;52.498;13.446;2022-08-18T03:26:08;23.60;95.60
37518;DHT22;23366;52.498;13.446;2022-08-18T03:28:37;23.60;95.80
37518;DHT22;23366;52.498;13.446;2022-08-18T03:31:03;23.60;95.70
37518;DHT22;23366;52.498;13.446;2022-08-18T03:33:29;23.50;95.90
37518;DHT22;23366;52.498;13.446;2022-08-18T03:35:55;23.50;95.80
37518;DHT22;23366;52.498;13.446;2022-08-18T03:38:21;23.50;96.10
37518;DHT22;23366;52.498;13.446;2022-08-18T03:40:51;23.50;96.30
37518;DHT22;23366;52.498;13.446;2022-08-18T03:43:17;23.50;96.40
37518;DHT22;23366;52.498;13.446;2022-08-18T03:45:42;23.50;96.50
37518;DHT22;23366;52.498;13.446;2022-08-18T03:48:08;23.50;96.80
37518;DHT22;23366;52.498;13.446;2022-08-18T03:50:35;23.50;97.00
37518;DHT22;23366;52.498;13.446;2022-08-18T03:53:00;23.50;97.30
37518;DHT22;23366;52.498;13.446;2022-08-18T03:55:26;23.50;97.60
37518;DHT22;23366;52.498;13.446;2022-08-18T03:57:57;23.50;97.50
37518;DHT22;23366;52.498;13.446;2022-08-18T04:00:23;23.60;97.60
37518;DHT22;23366;52.498;13.446;2022-08-18T04:02:52;23.50;97.90
37518;DHT22;23366;52.498;13.446;2022-08-18T04:05:17;23.60;97.60
37518;DHT22;23366;52.498;13.446;2022-08-18T04:07:42;23.50;97.70
37518;DHT22;23366;52.498;13.446;2022-08-18T04:10:08;23.60;97.70
37518;DHT22;23366;52.498;13.446;2022-08-18T04:12:34;23.60;97.80
37518;DHT22;23366;52.498;13.446;2022-08-18T04:15:01;23.50;97.80
37518;DHT22;23366;52.498;13.446;2022-08-18T04:17:26;23.50;97.60
37518;DHT22;23366;52.498;13.446;2022-08-18T04:19:53;23.60;97.70
37518;DHT22;23366;52.498;13.446;2022-08-18T04:22:19;23.60;97.70
37518;DHT22;23366;52.498;13.446;2022-08-18T04:24:45;23.60;97.70
37518;DHT22;23366;52.498;13.446;2022-08-18T04:27:11;23.60;97.70
37518;DHT22;23366;52.498;13.446;2022-08-18T04:29:37;23.60;97.80
37518;DHT22;23366;52.498;13.446;2022-08-18T04:32:02;23.70;97.80
37518;DHT22;23366;52.498;13.446;2022-08-18T04:34:29;23.70;97.80
37518;DHT22;23366;52.498;13.446;2022-08-18T04:36:55;23.70;97.70
37518;DHT22;23366;52.498;13.446;2022-08-18T04:39:22;23.70;97.80
37518;DHT22;23366;52.498;13.446;2022-08-18T04:41:48;23.80;97.50
37518;DHT22;23366;52.498;13.446;2022-08-18T04:44:14;23.80;97.40
37518;DHT22;23366;52.498;13.446;2022-08-18T04:46:44;23.80;97.30
37518;DHT22;23366;52.498;13.446;2022-08-18T04:49:12;23.90;97.30
37518;DHT22;23366;52.498;13.446;2022-08-18T04:51:47;23.90;97.40
37518;DHT22;23366;52.498;13.446;2022-08-18T04:54:34;23.90;97.60
37518;DHT22;23366;52.498;13.446;2022-08-18T04:57:11;23.90;97.50
37518;DHT22;23366;52.498;13.446;2022-08-18T04:59:39;24.00;97.50
37518;DHT22;23366;52.498;13.446;2022-08-18T05:02:06;24.10;97.50
37518;DHT22;23366;52.498;13.446;2022-08-18T05:04:34;24.10;97.30
37518;DHT22;23366;52.498;13.446;2022-08-18T05:07:00;24.20;97.00
37518;DHT22;23366;52.498;13.446;2022-08-18T05:09:26;24.20;96.40
37518;DHT22;23366;52.498;13.446;2022-08-18T05:11:51;24.30;95.90
37518;DHT22;23366;52.498;13.446;2022-08-18T05:14:17;24.40;95.70
37518;DHT22;23366;52.498;13.446;2022-08-18T05:16:43;24.40;95.40
37518;DHT22;23366;52.498;13.446;2022-08-18T05:19:10;24.40;95.60
37518;DHT22;23366;52.498;13.446;2022-08-18T05:21:36;24.50;95.80
37518;DHT22;23366;52.498;13.446;2022-08-18T05:24:04;24.50;95.80
37518;DHT22;23366;52.498;13.446;2022-08-18T05:26:30;24.40;95.80
37518;DHT22;23366;52.498;13.446;2022-08-18T05:28:56;24.50;95.90
37518;DHT22;23366;52.498;13.446;2022-08-18T05:31:24;24.50;95.70
37518;DHT22;23366;52.498;13.446;2022-08-18T05:33:51;24.60;95.90
37518;DHT22;23366;52.498;13.446;2022-08-18T05:36:20;24.50;96.00
37518;DHT22;23366;52.498;13.446;2022-08-18T05:41:27;24.60;96.70
37518;DHT22;23366;52.498;13.446;2022-08-18T05:43:56;24.60;96.60
37518;DHT22;23366;52.498;13.446;2022-08-18T05:46:43;24.60;96.60
37518;DHT22;23366;52.498;13.446;2022-08-18T05:49:11;24.60;96.80
37518;DHT22;23366;52.498;13.446;2022-08-18T05:51:41;24.60;96.50
37518;DHT22;23366;52.498;13.446;2022-08-18T05:54:08;24.60;96.10
37518;DHT22;23366;52.498;13.446;2022-08-18T05:56:54;24.60;95.80
37518;DHT22;23366;52.498;13.446;2022-08-18T05:59:33;24.60;95.30
37518;DHT22;23366;52.498;13.446;2022-08-18T06:02:32;24.60;95.10
37518;DHT22;23366;52.498;13.446;2022-08-18T06:05:03;24.60;94.70
37518;DHT22;23366;52.498;13.446;2022-08-18T06:07:33;24.80;94.40
37518;DHT22;23366;52.498;13.446;2022-08-18T06:10:01;25.00;94.10
37518;DHT22;23366;52.498;13.446;2022-08-18T06:12:32;25.20;93.90
37518;DHT22;23366;52.498;13.446;2022-08-18T06:15:02;25.70;93.00
37518;DHT22;23366;52.498;13.446;2022-08-18T06:17:50;26.20;92.30
37518;DHT22;23366;52.498;13.446;2022-08-18T06:23:31;27.40;89.60
37518;DHT22;23366;52.498;13.446;2022-08-18T06:26:12;28.10;86.60
37518;DHT22;23366;52.498;13.446;2022-08-18T06:29:00;28.70;84.30
37518;DHT22;23366;52.498;13.446;2022-08-18T06:31:42;29.20;83.10
37518;DHT22;23366;52.498;13.446;2022-08-18T06:34:22;29.70;80.70
37518;DHT22;23366;52.498;13.446;2022-08-18T06:37:00;30.10;78.80
37518;DHT22;23366;52.498;13.446;2022-08-18T06:39:34;30.50;76.80
37518;DHT22;23366;52.498;13.446;2022-08-18T06:42:03;30.80;76.10
37518;DHT22;23366;52.498;13.446;2022-08-18T06:44:38;31.00;74.00
37518;DHT22;23366;52.498;13.446;2022-08-18T06:50:03;31.30;72.70
37518;DHT22;23366;52.498;13.446;2022-08-18T06:52:34;31.30;72.60
37518;DHT22;23366;52.498;13.446;2022-08-18T06:55:05;31.30;72.30
37518;DHT22;23366;52.498;13.446;2022-08-18T06:57:37;31.20;72.20
37518;DHT22;23366;52.498;13.446;2022-08-18T07:00:21;31.20;72.40
37518;DHT22;23366;52.498;13.446;2022-08-18T07:03:10;31.10;72.40
37518;DHT22;23366;52.498;13.446;2022-08-18T07:05:37;31.10;71.80
37518;DHT22;23366;52.498;13.446;2022-08-18T07:08:40;31.10;72.10
37518;DHT22;23366;52.498;13.446;2022-08-18T07:11:30;30.90;70.70
37518;DHT22;23366;52.498;13.446;2022-08-18T07:14:19;30.90;72.30
37518;DHT22;23366;52.498;13.446;2022-08-18T07:16:46;30.90;72.50
37518;DHT22;23366;52.498;13.446;2022-08-18T07:19:19;31.10;72.20
37518;DHT22;23366;52.498;13.446;2022-08-18T07:21:46;31.20;71.20
37518;DHT22;23366;52.498;13.446;2022-08-18T07:24:39;31.20;71.30
37518;DHT22;23366;52.498;13.446;2022-08-18T07:27:20;31.20;71.40
37518;DHT22;23366;52.498;13.446;2022-08-18T07:30:12;31.10;71.30
37518;DHT22;23366;52.498;13.446;2022-08-18T07:35:15;30.70;72.80
37518;DHT22;23366;52.498;13.446;2022-08-18T07:37:47;30.50;73.40
37518;DHT22;23366;52.498;13.446;2022-08-18T07:40:38;30.40;73.30
37518;DHT22;23366;52.498;13.446;2022-08-18T07:43:39;30.30;74.40
37518;DHT22;23366;52.498;13.446;2022-08-18T07:46:29;30.10;74.60
37518;DHT22;23366;52.498;13.446;2022-08-18T07:48:56;30.00;75.40
37518;DHT22;23366;52.498;13.446;2022-08-18T08:05:05;29.50;76.60
37518;DHT22;23366;52.498;13.446;2022-08-18T08:07:44;29.40;77.70
37518;DHT22;23366;52.498;13.446;2022-08-18T08:10:18;29.40;77.90
37518;DHT22;23366;52.498;13.446;2022-08-18T08:12:57;29.40;77.70
37518;DHT22;23366;52.498;13.446;2022-08-18T08:16:18;29.30;76.80
37518;DHT22;23366;52.498;13.446;2022-08-18T08:18:35;29.20;76.90
37518;DHT22;23366;52.498;13.446;2022-08-18T08:21:24;29.30;76.90
37518;DHT22;23366;52.498;13.446;2022-08-18T08:29:48;29.40;77.50
37518;DHT22;23366;52.498;13.446;2022-08-18T08:32:54;29.50;77.00
37518;DHT22;23366;52.498;13.446;2022-08-18T08:35:42;29.60;76.80
37518;DHT22;23366;52.498;13.446;2022-08-18T08:38:56;29.70;76.30
37518;DHT22;23366;52.498;13.446;2022-08-18T08:41:21;29.80;76.30
37518;DHT22;23366;52.498;13.446;2022-08-18T08:44:13;29.90;76.80
37518;DHT22;23366;52.498;13.446;2022-08-18T08:46:53;30.00;76.20
37518;DHT22;23366;52.498;13.446;2022-08-18T08:52:20;30.30;76.00
37518;DHT22;23366;52.498;13.446;2022-08-18T08:54:55;30.50;75.20
37518;DHT22;23366;52.498;13.446;2022-08-18T08:57:28;30.60;72.60
37518;DHT22;23366;52.498;13.446;2022-08-18T08:59:57;30.80;73.70
37518;DHT22;23366;52.498;13.446;2022-08-18T09:05:29;31.40;71.50
37518;DHT22;23366;52.498;13.446;2022-08-18T09:09:00;31.70;70.80
37518;DHT22;23366;52.498;13.446;2022-08-18T09:12:13;31.90;70.50
37518;DHT22;23366;52.498;13.446;2022-08-18T09:20:41;32.50;68.60
37518;DHT22;23366;52.498;13.446;2022-08-18T09:23:25;32.90;68.30
37518;DHT22;23366;52.498;13.446;2022-08-18T09:25:58;33.50;67.00
37518;DHT22;23366;52.498;13.446;2022-08-18T09:38:59;34.90;62.70
37518;DHT22;23366;52.498;13.446;2022-08-18T09:41:54;35.00;60.80
37518;DHT22;23366;52.498;13.446;2022-08-18T09:47:06;34.40;60.80
37518;DHT22;23366;52.498;13.446;2022-08-18T09:49:40;34.10;60.80
37518;DHT22;23366;52.498;13.446;2022-08-18T09:54:53;33.30;62.70
37518;DHT22;23366;52.498;13.446;2022-08-18T10:00:26;33.30;63.80
37518;DHT22;23366;52.498;13.446;2022-08-18T10:10:39;33.60;63.70
37518;DHT22;23366;52.498;13.446;2022-08-18T10:13:19;33.60;63.10
37518;DHT22;23366;52.498;13.446;2022-08-18T10:15:52;33.50;62.70
37518;DHT22;23366;52.498;13.446;2022-08-18T10:21:15;33.50;62.50
37518;DHT22;23366;52.498;13.446;2022-08-18T10:34:42;32.80;63.60
37518;DHT22;23366;52.498;13.446;2022-08-18T10:37:21;32.70;62.80
37518;DHT22;23366;52.498;13.446;2022-08-18T10:40:04;32.80;64.00
37518;DHT22;23366;52.498;13.446;2022-08-18T10:42:56;32.90;61.30
37518;DHT22;23366;52.498;13.446;2022-08-18T10:45:51;33.00;61.10
37518;DHT22;23366;52.498;13.446;2022-08-18T10:48:23;33.00;63.40
37518;DHT22;23366;52.498;13.446;2022-08-18T10:50:57;33.00;61.90
37518;DHT22;23366;52.498;13.446;2022-08-18T10:56:38;32.90;61.20
37518;DHT22;23366;52.498;13.446;2022-08-18T10:59:12;32.80;61.00
37518;DHT22;23366;52.498;13.446;2022-08-18T11:01:57;32.70;60.90
37518;DHT22;23366;52.498;13.446;2022-08-18T11:04:30;32.70;61.50
37518;DHT22;23366;52.498;13.446;2022-08-18T11:07:21;32.60;62.20
37518;DHT22;23366;52.498;13.446;2022-08-18T11:09:53;32.60;63.40
37518;DHT22;23366;52.498;13.446;2022-08-18T11:12:53;32.60;63.30
37518;DHT22;23366;52.498;13.446;2022-08-18T11:15:52;32.50;60.60
37518;DHT22;23366;52.498;13.446;2022-08-18T11:18:40;32.50;61.20
37518;DHT22;23366;52.498;13.446;2022-08-18T11:24:17;32.40;60.20
37518;DHT22;23366;52.498;13.446;2022-08-18T11:27:04;32.30;60.50
37518;DHT22;23366;52.498;13.446;2022-08-18T11:29:34;32.30;60.20
37518;DHT22;23366;52.498;13.446;2022-08-18T11:32:26;32.20;60.00
37518;DHT22;23366;52.498;13.446;2022-08-18T11:35:02;32.20;60.80
37518;DHT22;23366;52.498;13.446;2022-08-18T11:37:35;32.10;60.30
37518;DHT22;23366;52.498;13.446;2022-08-18T11:40:06;32.10;60.40
37518;DHT22;23366;52.498;13.446;2022-08-18T11:42:38;32.20;60.40
37518;DHT22;23366;52.498;13.446;2022-08-18T11:45:10;32.10;60.50
37518;DHT22;23366;52.498;13.446;2022-08-18T11:59:29;32.70;62.00
37518;DHT22;23366;52.498;13.446;2022-08-18T12:01:54;32.90;60.80
37518;DHT22;23366;52.498;13.446;2022-08-18T12:04:25;33.10;58.40
37518;DHT22;23366;52.498;13.446;2022-08-18T12:09:37;33.40;57.80
37518;DHT22;23366;52.498;13.446;2022-08-18T12:12:26;33.60;57.50
37518;DHT22;23366;52.498;13.446;2022-08-18T12:15:25;33.70;56.20
37518;DHT22;23366;52.498;13.446;2022-08-18T12:17:51;33.80;57.30
37518;DHT22;23366;52.498;13.446;2022-08-18T12:20:17;33.90;56.50
37518;DHT22;23366;52.498;13.446;2022-08-18T12:22:44;33.70;55.60
37518;DHT22;23366;52.498;13.446;2022-08-18T12:25:15;34.00;56.80
37518;DHT22;23366;52.498;13.446;2022-08-18T12:27:41;34.20;56.40
37518;DHT22;23366;52.498;13.446;2022-08-18T12:30:09;34.20;55.80
37518;DHT22;23366;52.498;13.446;2022-08-18T12:32:35;34.10;55.60
37518;DHT22;23366;52.498;13.446;2022-08-18T12:35:02;34.20;54.80
37518;DHT22;23366;52.498;13.446;2022-08-18T12:37:28;34.10;55.30
37518;DHT22;23366;52.498;13.446;2022-08-18T12:39:55;33.80;55.20
37518;DHT22;23366;52.498;13.446;2022-08-18T12:42:23;33.60;55.00
37518;DHT22;23366;52.498;13.446;2022-08-18T12:44:49;33.40;55.90
37518;DHT22;23366;52.498;13.446;2022-08-18T12:47:19;33.40;56.50
37518;DHT22;23366;52.498;13.446;2022-08-18T12:49:46;33.40;56.30
37518;DHT22;23366;52.498;13.446;2022-08-18T12:52:12;33.40;56.10
37518;DHT22;23366;52.498;13.446;2022-08-18T12:54:38;33.50;57.10
37518;DHT22;23366;52.498;13.446;2022-08-18T12:57:06;33.50;57.20
37518;DHT22;23366;52.498;13.446;2022-08-18T12:59:33;33.50;57.40
37518;DHT22;23366;52.498;13.446;2022-08-18T13:02:00;33.60;57.40
37518;DHT22;23366;52.498;13.446;2022-08-18T13:04:26;33.70;57.00
37518;DHT22;23366;52.498;13.446;2022-08-18T13:06:53;33.70;56.90
37518;DHT22;23366;52.498;13.446;2022-08-18T13:09:23;33.80;56.80
37518;DHT22;23366;52.498;13.446;2022-08-18T13:11:49;33.80;56.60
37518;DHT22;23366;52.498;13.446;2022-08-18T13:14:15;33.80;56.10
37518;DHT22;23366;52.498;13.446;2022-08-18T13:16:42;33.80;55.40
37518;DHT22;23366;52.498;13.446;2022-08-18T13:19:09;33.70;55.90
37518;DHT22;23366;52.498;13.446;2022-08-18T13:21:35;33.60;58.10
37518;DHT22;23366;52.498;13.446;2022-08-18T13:24:01;33.60;57.30
37518;DHT22;23366;52.498;13.446;2022-08-18T13:26:31;33.70;57.30
37518;DHT22;23366;52.498;13.446;2022-08-18T13:28:57;33.70;57.00
37518;DHT22;23366;52.498;13.446;2022-08-18T13:31:25;33.80;57.40
37518;DHT22;23366;52.498;13.446;2022-08-18T13:33:51;33.90;56.00
37518;DHT22;23366;52.498;13.446;2022-08-18T13:36:17;33.90;55.80
37518;DHT22;23366;52.498;13.446;2022-08-18T13:38:42;33.90;55.80
37518;DHT22;23366;52.498;13.446;2022-08-18T13:41:09;34.00;56.10
37518;DHT22;23366;52.498;13.446;2022-08-18T13:43:37;34.10;56.60
37518;DHT22;23366;52.498;13.446;2022-08-18T13:46:06;34.10;57.10
37518;DHT22;23366;52.498;13.446;2022-08-18T13:48:33;34.10;58.00
37518;DHT22;23366;52.498;13.446;2022-08-18T13:51:00;34.10;57.80
37518;DHT22;23366;52.498;13.446;2022-08-18T13:53:27;34.10;58.20
37518;DHT22;23366;52.498;13.446;2022-08-18T13:55:55;34.20;58.40
37518;DHT22;23366;52.498;13.446;2022-08-18T13:58:22;34.10;57.40
37518;DHT22;23366;52.498;13.446;2022-08-18T14:00:55;34.20;57.90
37518;DHT22;23366;52.498;13.446;2022-08-18T14:03:22;34.20;57.90
37518;DHT22;23366;52.498;13.446;2022-08-18T14:05:49;34.10;57.80
37518;DHT22;23366;52.498;13.446;2022-08-18T14:08:15;34.10;57.70
37518;DHT22;23366;52.498;13.446;2022-08-18T14:10:40;34.00;57.70
37518;DHT22;23366;52.498;13.446;2022-08-18T14:13:06;34.00;58.00
37518;DHT22;23366;52.498;13.446;2022-08-18T14:15:33;33.90;57.60
37518;DHT22;23366;52.498;13.446;2022-08-18T14:18:04;33.90;58.10
37518;DHT22;23366;52.498;13.446;2022-08-18T14:20:30;33.90;57.90
37518;DHT22;23366;52.498;13.446;2022-08-18T14:23:14;33.90;58.10
37518;DHT22;23366;52.498;13.446;2022-08-18T14:25:59;33.90;57.70
37518;DHT22;23366;52.498;13.446;2022-08-18T14:28:43;33.80;58.50
37518;DHT22;23366;52.498;13.446;2022-08-18T14:31:09;33.90;58.40
37518;DHT22;23366;52.498;13.446;2022-08-18T14:33:37;33.90;58.30
37518;DHT22;23366;52.498;13.446;2022-08-18T14:36:03;33.90;57.90
37518;DHT22;23366;52.498;13.446;2022-08-18T14:38:31;33.90;57.80
37518;DHT22;23366;52.498;13.446;2022-08-18T14:40:58;33.90;58.40
37518;DHT22;23366;52.498;13.446;2022-08-18T14:43:26;34.00;58.60
37518;DHT22;23366;52.498;13.446;2022-08-18T14:45:52;34.10;58.10
37518;DHT22;23366;52.498;13.446;2022-08-18T14:48:19;34.10;57.80
37518;DHT22;23366;52.498;13.446;2022-08-18T14:50:48;34.10;57.60
37518;DHT22;23366;52.498;13.446;2022-08-18T14:53:16;34.10;57.30
37518;DHT22;23366;52.498;13.446;2022-08-18T14:55:44;34.10;56.90
37518;DHT22;23366;52.498;13.446;2022-08-18T14:58:10;34.20;56.90
37518;DHT22;23366;52.498;13.446;2022-08-18T15:00:35;34.20;56.40
37518;DHT22;23366;52.498;13.446;2022-08-18T15:03:01;34.20;56.90
37518;DHT22;23366;52.498;13.446;2022-08-18T15:05:29;34.10;56.90
37518;DHT22;23366;52.498;13.446;2022-08-18T15:07:56;33.80;57.10
37518;DHT22;23366;52.498;13.446;2022-08-18T15:10:23;33.70;58.10
37518;DHT22;23366;52.498;13.446;2022-08-18T15:12:51;33.30;58.70
37518;DHT22;23366;52.498;13.446;2022-08-18T15:15:17;33.00;59.60
37518;DHT22;23366;52.498;13.446;2022-08-18T15:17:43;32.90;60.20
37518;DHT22;23366;52.498;13.446;2022-08-18T15:20:09;32.80;60.10
37518;DHT22;23366;52.498;13.446;2022-08-18T15:22:43;32.80;60.90
37518;DHT22;23366;52.498;13.446;2022-08-18T15:25:28;32.60;61.00
37518;DHT22;23366;52.498;13.446;2022-08-18T15:28:08;32.40;61.80
37518;DHT22;23366;52.498;13.446;2022-08-18T15:30:35;32.30;62.40
37518;DHT22;23366;52.498;13.446;2022-08-18T15:33:02;32.10;62.50
37518;DHT22;23366;52.498;13.446;2022-08-18T15:35:28;32.10;63.40
37518;DHT22;23366;52.498;13.446;2022-08-18T15:37:54;32.00;63.30
37518;DHT22;23366;52.498;13.446;2022-08-18T15:40:23;32.00;63.80
37518;DHT22;23366;52.498;13.446;2022-08-18T15:42:53;31.90;63.80
37518;DHT22;23366;52.498;13.446;2022-08-18T15:45:28;31.80;63.90
37518;DHT22;23366;52.498;13.446;2022-08-18T15:47:54;31.80;64.10
37518;DHT22;23366;52.498;13.446;2022-08-18T15:50:20;31.80;64.50
37518;DHT22;23366;52.498;13.446;2022-08-18T15:52:52;31.80;63.80
37518;DHT22;23366;52.498;13.446;2022-08-18T15:55:20;31.70;64.10
37518;DHT22;23366;52.498;13.446;2022-08-18T15:57:47;31.70;64.60
37518;DHT22;23366;52.498;13.446;2022-08-18T16:00:15;31.60;64.40
37518;DHT22;23366;52.498;13.446;2022-08-18T16:02:54;31.50;64.20
37518;DHT22;23366;52.498;13.446;2022-08-18T16:05:27;31.40;64.40
37518;DHT22;23366;52.498;13.446;2022-08-18T16:07:54;31.40;64.90
37518;DHT22;23366;52.498;13.446;2022-08-18T16:10:21;31.20;64.40
37518;DHT22;23366;52.498;13.446;2022-08-18T16:12:47;31.00;65.00
37518;DHT22;23366;52.498;13.446;2022-08-18T16:15:15;30.80;65.20
37518;DHT22;23366;52.498;13.446;2022-08-18T16:17:41;30.60;65.50
37518;DHT22;23366;52.498;13.446;2022-08-18T16:20:07;30.30;66.00
37518;DHT22;23366;52.498;13.446;2022-08-18T16:22:36;30.00;67.00
37518;DHT22;23366;52.498;13.446;2022-08-18T16:25:06;29.80;67.60
37518;DHT22;23366;52.498;13.446;2022-08-18T16:27:37;29.60;68.50
37518;DHT22;23366;52.498;13.446;2022-08-18T16:30:09;29.30;68.60
37518;DHT22;23366;52.498;13.446;2022-08-18T16:32:35;29.00;77.30
37518;DHT22;23366;52.498;13.446;2022-08-18T16:35:02;28.10;82.60
37518;DHT22;23366;52.498;13.446;2022-08-18T16:37:28;27.20;87.60
37518;DHT22;23366;52.498;13.446;2022-08-18T16:39:54;26.50;90.60
37518;DHT22;23366;52.498;13.446;2022-08-18T16:42:20;25.90;92.40
37518;DHT22;23366;52.498;13.446;2022-08-18T16:44:46;25.40;97.20
37518;DHT22;23366;52.498;13.446;2022-08-18T16:47:11;24.50;99.90
37518;DHT22;23366;52.498;13.446;2022-08-18T16:49:38;23.50;99.90
37518;DHT22;23366;52.498;13.446;2022-08-18T16:52:04;22.90;99.90
37518;DHT22;23366;52.498;13.446;2022-08-18T16:54:31;22.70;99.90
37518;DHT22;23366;52.498;13.446;2022-08-18T16:56:57;22.50;99.90
37518;DHT22;23366;52.498;13.446;2022-08-18T16:59:23;22.30;99.90
37518;DHT22;23366;52.498;13.446;2022-08-18T17:02:07;22.00;99.90
37518;DHT22;23366;52.498;13.446;2022-08-18T17:04:51;21.90;99.90
37518;DHT22;23366;52.498;13.446;2022-08-18T17:07:17;21.80;99.90
37518;DHT22;23366;52.498;13.446;2022-08-18T17:09:43;21.70;99.90
37518;DHT22;23366;52.498;13.446;2022-08-18T17:12:09;21.60;99.90
37518;DHT22;23366;52.498;13.446;2022-08-18T17:14:34;21.70;99.90
37518;DHT22;23366;52.498;13.446;2022-08-18T17:17:01;21.70;99.90
37518;DHT22;23366;52.498;13.446;2022-08-18T17:19:31;21.70;99.90
37518;DHT22;23366;52.498;13.446;2022-08-18T17:22:02;21.70;99.90
37518;DHT22;23366;52.498;13.446;2022-08-18T17:24:28;21.50;99.90
37518;DHT22;23366;52.498;13.446;2022-08-18T17:27:01;21.60;99.90
37518;DHT22;23366;52.498;13.446;2022-08-18T17:29:57;21.50;99.90